Site contains unofficial IBTrACS data. Visit the IBTrACS Website to access archived data.

1897 NOT_NAMED (1897345S11062)


IBTrACS version v04r00. Visit IBTrACS website for data access.
Please direct all questions to the IBTrACS Q and A forum

Storm track - Intensity - Wind Radii - Intensity Data - Source Data - All data

Summary Information

Storm ID 1897345S11062
Start Dec 11 00Z
End Dec 18 00Z
ATCF IDs
Track status Best track data.

Storm track plot

Map of storm track

Intensity plots

No Intensity information for this storm


Radial wind information

No radial wind information for this storm


Position and Intensity Table

BASIN ISO_TIME_________ NATURE LAT LON
degrees north degrees east
SI 1897-12-11 00:00:00 TS -11.00 61.70
SI 03:00:00 TS -11.24 61.14
SI 06:00:00 TS -11.50 60.60
SI 09:00:00 TS -11.79 60.09
SI 12:00:00 TS -12.10 59.60
SI 15:00:00 TS -12.40 59.09
SI 18:00:00 TS -12.70 58.60
SI 21:00:00 TS -13.00 58.14
SI 1897-12-12 00:00:00 TS -13.30 57.70
SI 03:00:00 TS -13.59 57.24
SI 06:00:00 TS -13.90 56.80
SI 09:00:00 TS -14.25 56.41
SI 12:00:00 TS -14.60 56.00
SI 15:00:00 TS -14.90 55.51
SI 18:00:00 TS -15.20 55.00
SI 21:00:00 TS -15.56 54.53
SI 1897-12-13 00:00:00 TS -15.90 54.10
SI 03:00:00 TS -16.16 53.73
SI 06:00:00 TS -16.40 53.40
SI 09:00:00 TS -16.70 53.05
SI 12:00:00 TS -17.00 52.70
SI 15:00:00 TS -17.25 52.35
SI 18:00:00 TS -17.50 52.00
SI 21:00:00 TS -17.79 51.65
SI 1897-12-14 00:00:00 TS -18.10 51.30
SI 03:00:00 TS -18.39 50.92
SI 06:00:00 TS -18.70 50.60
SI 09:00:00 TS -19.08 50.38
SI 12:00:00 TS -19.50 50.30
SI 15:00:00 TS -19.91 50.35
SI 18:00:00 TS -20.30 50.50
SI 21:00:00 TS -20.65 50.64
SI 1897-12-15 00:00:00 TS -21.00 50.80
SI 03:00:00 TS -21.39 50.99
SI 06:00:00 TS -21.80 51.20
SI 09:00:00 TS -22.19 51.39
SI 12:00:00 TS -22.60 51.60
SI 15:00:00 TS -23.05 51.84
SI 18:00:00 TS -23.50 52.10
SI 21:00:00 TS -23.91 52.39
SI 1897-12-16 00:00:00 TS -24.30 52.70
SI 03:00:00 TS -24.66 52.99
SI 06:00:00 TS -25.00 53.30
SI 09:00:00 TS -25.35 53.65
SI 12:00:00 TS -25.70 54.00
SI 15:00:00 TS -26.04 54.31
SI 18:00:00 TS -26.40 54.60
SI 21:00:00 TS -26.74 54.83
SI 1897-12-17 00:00:00 TS -27.20 55.20
SI 03:00:00 TS -27.91 55.87
SI 06:00:00 TS -28.70 56.70
SI 09:00:00 TS -29.37 57.46
SI 12:00:00 TS -30.00 58.30
SI 15:00:00 TS -30.64 59.25
SI 18:00:00 TS -31.20 60.30
SI 21:00:00 TS -31.60 61.43
SI 1897-12-18 00:00:00 TS -31.90 62.60

Source Information

Agency Information
USA
TOKYO
CMA
HKO
NEWDELHI
REUNION
BOM
NADI
WELLINGTON
DS824 s_hem.dat:97:NOT NAMED
TD9636
TD9635
NEUMANN
MLC

All available IBTrACS Data

SEASON BASIN SUBBASIN ISO_TIME_________ NATURE LAT LON DIST2LAND LANDFALL IFLAG USA SSHS DS824 LAT DS824 LON DS824 STAGE STORM SPEED STORM DIR
Year degrees north degrees east km km 1 degrees north degrees east kts degrees
1898 SI MM 1897-12-11 00:00:00 TS -11.00 61.70 1104 1064 _________O____ -1 -11.00 61.70 TC 12 246
1898 SI MM 03:00:00 TS -11.24 61.14 1060 1011 _________P____ -1 -11.24 61.14 TC 12 245
1898 SI MM 06:00:00 TS -11.50 60.60 1011 963 _________O____ -1 -11.50 60.60 TC 12 242
1898 SI MM 09:00:00 TS -11.79 60.09 963 918 _________P____ -1 -11.79 60.09 TC 12 238
1898 SI MM 12:00:00 TS -12.10 59.60 918 874 _________O____ -1 -12.10 59.60 TC 12 238
1898 SI MM 15:00:00 TS -12.40 59.09 874 833 _________P____ -1 -12.40 59.09 TC 11 238
1898 SI MM 18:00:00 TS -12.70 58.60 833 796 _________O____ -1 -12.70 58.60 TC 11 237
1898 SI MM 21:00:00 TS -13.00 58.14 795 760 _________P____ -1 -13.00 58.14 TC 11 236
1898 SI MM 1897-12-12 00:00:00 TS -13.30 57.70 760 727 _________O____ -1 -13.30 57.70 TC 11 236
1898 SI MM 03:00:00 TS -13.59 57.24 728 693 _________P____ -1 -13.59 57.24 TC 11 236
1898 SI MM 06:00:00 TS -13.90 56.80 693 644 _________O____ -1 -13.90 56.80 TC 10 231
1898 SI MM 09:00:00 TS -14.25 56.41 644 595 _________P____ -1 -14.25 56.41 TC 10 228
1898 SI MM 12:00:00 TS -14.60 56.00 595 538 _________O____ -1 -14.60 56.00 TC 11 233
1898 SI MM 15:00:00 TS -14.90 55.51 538 483 _________P____ -1 -14.90 55.51 TC 11 238
1898 SI MM 18:00:00 TS -15.20 55.00 483 439 _________O____ -1 -15.20 55.00 TC 12 235
1898 SI MM 21:00:00 TS -15.56 54.53 429 389 _________P____ -1 -15.56 54.53 TC 11 231
1898 SI MM 1897-12-13 00:00:00 TS -15.90 54.10 389 361 _________O____ -1 -15.90 54.10 TC 10 232
1898 SI MM 03:00:00 TS -16.16 53.73 354 329 _________P____ -1 -16.16 53.73 TC 8 233
1898 SI MM 06:00:00 TS -16.40 53.40 329 308 _________O____ -1 -16.40 53.40 TC 9 230
1898 SI MM 09:00:00 TS -16.70 53.05 303 289 _________P____ -1 -16.70 53.05 TC 9 228
1898 SI MM 12:00:00 TS -17.00 52.70 289 270 _________O____ -1 -17.00 52.70 TC 9 231
1898 SI MM 15:00:00 TS -17.25 52.35 261 246 _________P____ -1 -17.25 52.35 TC 8 233
1898 SI MM 18:00:00 TS -17.50 52.00 246 225 _________O____ -1 -17.50 52.00 TC 9 231
1898 SI MM 21:00:00 TS -17.79 51.65 221 195 _________P____ -1 -17.79 51.65 TC 9 228
1898 SI MM 1897-12-14 00:00:00 TS -18.10 51.30 195 159 _________O____ -1 -18.10 51.30 TC 9 230
1898 SI MM 03:00:00 TS -18.39 50.92 159 134 _________P____ -1 -18.39 50.92 TC 9 228
1898 SI MM 06:00:00 TS -18.70 50.60 138 128 _________O____ -1 -18.70 50.60 TC 9 216
1898 SI MM 09:00:00 TS -19.08 50.38 133 128 _________P____ -1 -19.08 50.38 TC 9 199
1898 SI MM 12:00:00 TS -19.50 50.30 137 137 _________O____ -1 -19.50 50.30 TC 8 0
1898 SI MM 15:00:00 TS -19.91 50.35 166 166 _________P____ -1 -19.91 50.35 TC 8 167
1898 SI MM 18:00:00 TS -20.30 50.50 180 180 _________O____ -1 -20.30 50.50 TC 8 161
1898 SI MM 21:00:00 TS -20.65 50.64 199 199 _________P____ -1 -20.65 50.64 TC 8 158
1898 SI MM 1897-12-15 00:00:00 TS -21.00 50.80 236 236 _________O____ -1 -21.00 50.80 TC 8 156
1898 SI MM 03:00:00 TS -21.39 50.99 273 273 _________P____ -1 -21.39 50.99 TC 9 155
1898 SI MM 06:00:00 TS -21.80 51.20 303 303 _________O____ -1 -21.80 51.20 TC 9 155
1898 SI MM 09:00:00 TS -22.19 51.39 332 332 _________P____ -1 -22.19 51.39 TC 9 155
1898 SI MM 12:00:00 TS -22.60 51.60 361 361 _________O____ -1 -22.60 51.60 TC 10 154
1898 SI MM 15:00:00 TS -23.05 51.84 393 393 _________P____ -1 -23.05 51.84 TC 10 153
1898 SI MM 18:00:00 TS -23.50 52.10 410 408 _________O____ -1 -23.50 52.10 TC 10 149
1898 SI MM 21:00:00 TS -23.91 52.39 415 415 _________P____ -1 -23.91 52.39 TC 10 146
1898 SI MM 1897-12-16 00:00:00 TS -24.30 52.70 428 428 _________O____ -1 -24.30 52.70 TC 9 144
1898 SI MM 03:00:00 TS -24.66 52.99 446 441 _________P____ -1 -24.66 52.99 TC 9 142
1898 SI MM 06:00:00 TS -25.00 53.30 461 461 _________O____ -1 -25.00 53.30 TC 9 139
1898 SI MM 09:00:00 TS -25.35 53.65 486 486 _________P____ -1 -25.35 53.65 TC 9 138
1898 SI MM 12:00:00 TS -25.70 54.00 507 507 _________O____ -1 -25.70 54.00 TC 9 139
1898 SI MM 15:00:00 TS -26.04 54.31 530 530 _________P____ -1 -26.04 54.31 TC 9 142
1898 SI MM 18:00:00 TS -26.40 54.60 567 567 _________O____ -1 -26.40 54.60 TC 8 146
1898 SI MM 21:00:00 TS -26.74 54.83 597 597 _________P____ -1 -26.74 54.83 TC 10 146
1898 SI MM 1897-12-17 00:00:00 TS -27.20 55.20 649 649 _________O____ -1 -27.20 55.20 TC 15 142
1898 SI MM 03:00:00 TS -27.91 55.87 726 726 _________P____ -1 -27.91 55.87 TC 20 139
1898 SI MM 06:00:00 TS -28.70 56.70 823 823 _________O____ -1 -28.70 56.70 TC 20 136
1898 SI MM 09:00:00 TS -29.37 57.46 913 913 _________P____ -1 -29.37 57.46 TC 19 133
1898 SI MM 12:00:00 TS -30.00 58.30 997 997 _________O____ -1 -30.00 58.30 TC 20 129
1898 SI MM 15:00:00 TS -30.64 59.25 1088 1088 _________P____ -1 -30.64 59.25 TC 21 125
1898 SI MM 18:00:00 TS -31.20 60.30 1190 1190 _________O____ -1 -31.20 60.30 TC 21 117
1898 SI MM 21:00:00 TS -31.60 61.43 1276 1276 _________P____ -1 -31.60 61.43 TC 21 110
1898 SI MM 1897-12-18 00:00:00 TS -31.90 62.60 1362 _________O____ -1 -31.90 62.60 TC 21 107